Time;durP1;ratioP1;P1;durP2;ratioP2;P2;SDS_P1;SDS_P2;PMS_P1;PMS_P2;Temp;Humidity;BMP_temperature;BMP_pressure;BME280_temperature;BME280_humidity;BME280_pressure;Samples;Min_cycle;Max_cycle;Signal;HPM_P1;HPM_P2
2024/01/29 00:03:31;;;;;;;8.48;2.50;;;;;;;6.33;77.25;102536.03;10411215;28;20056;-66
2024/01/29 00:08:52;;;;;;;3.63;2.40;;;;;;;6.25;76.08;102522.19;10404908;28;20057;-66
2024/01/29 00:14:14;;;;;;;3.83;2.63;;;;;;;6.24;74.91;102525.63;10415300;28;20096;-66
2024/01/29 00:19:36;;;;;;;6.22;2.67;;;;;;;6.27;75.38;102524.78;10407104;28;20067;-66
2024/01/29 00:24:58;;;;;;;5.95;2.50;;;;;;;6.25;76.12;102517.06;10411178;28;20048;-66
2024/01/29 00:30:20;;;;;;;3.25;2.55;;;;;;;6.21;75.67;102510.13;10400316;28;20077;-66
2024/01/29 00:35:42;;;;;;;5.70;2.58;;;;;;;6.20;75.61;102517.81;10408769;28;20409;-66
2024/01/29 00:41:04;;;;;;;6.75;2.90;;;;;;;6.13;76.40;102501.47;10410756;28;20056;-66
2024/01/29 00:46:27;;;;;;;5.57;2.90;;;;;;;6.08;77.33;102516.81;10408977;28;20852;-66
2024/01/29 00:51:48;;;;;;;5.35;2.55;;;;;;;5.97;77.27;102505.50;10418651;28;20052;-66
2024/01/29 00:57:11;;;;;;;2.58;2.22;;;;;;;5.98;78.17;102506.38;10422800;28;20068;-66
2024/01/29 01:02:33;;;;;;;4.80;2.53;;;;;;;5.95;76.32;102509.75;10408822;28;20057;-66
2024/01/29 01:07:55;;;;;;;5.03;2.75;;;;;;;5.90;78.51;102513.06;10418945;28;20045;-65
2024/01/29 01:13:16;;;;;;;3.22;2.47;;;;;;;5.86;76.76;102506.19;10414255;28;20580;-66
2024/01/29 01:18:38;;;;;;;5.60;2.50;;;;;;;5.85;77.67;102509.56;10399970;28;20061;-66
2024/01/29 01:24:01;;;;;;;4.38;2.20;;;;;;;5.81;79.14;102512.88;10403965;28;20097;-66
2024/01/29 01:29:23;;;;;;;5.00;2.20;;;;;;;5.75;79.16;102516.22;10408038;28;20092;-66
2024/01/29 01:34:44;;;;;;;3.50;2.00;;;;;;;5.74;79.18;102511.06;10413871;28;20059;-66
2024/01/29 01:40:07;;;;;;;4.43;1.88;;;;;;;5.74;79.14;102511.94;10414962;28;20055;-66
2024/01/29 01:45:29;;;;;;;4.40;2.40;;;;;;;5.68;78.08;102532.38;10409387;28;20072;-66
2024/01/29 01:50:51;;;;;;;3.63;2.08;;;;;;;5.69;77.87;102543.50;10423782;28;20088;-65
2024/01/29 01:56:14;;;;;;;3.75;2.53;;;;;;;5.65;81.10;102541.72;10416135;28;20064;-66
2024/01/29 02:01:36;;;;;;;5.35;2.40;;;;;;;5.59;81.12;102536.47;10422504;28;20138;-65
2024/01/29 02:06:59;;;;;;;4.07;2.70;;;;;;;5.55;83.66;102535.56;10414169;28;20122;-66
2024/01/29 02:12:22;;;;;;;5.63;2.47;;;;;;;5.52;83.77;102539.78;10419031;28;20122;-66
2024/01/29 02:17:44;;;;;;;3.13;2.35;;;;;;;5.49;84.17;102539.72;10413059;28;20072;-65
2024/01/29 02:23:06;;;;;;;4.40;2.40;;;;;;;5.45;83.32;102532.78;10409437;28;20119;-66
2024/01/29 02:28:30;;;;;;;4.97;2.40;;;;;;;5.45;84.51;102540.50;10413263;28;20045;-66
2024/01/29 02:33:52;;;;;;;4.38;2.40;;;;;;;5.43;85.75;102539.59;10408044;28;20225;-66
2024/01/29 02:39:14;;;;;;;3.42;1.92;;;;;;;5.39;85.23;102548.94;10434564;28;20468;-65
2024/01/29 02:44:36;;;;;;;4.63;2.33;;;;;;;5.35;85.63;102551.44;10410960;28;20041;-66
2024/01/29 02:49:58;;;;;;;6.15;2.80;;;;;;;5.34;85.42;102548.00;10412730;28;20059;-66
2024/01/29 02:55:20;;;;;;;3.90;2.30;;;;;;;5.27;86.31;102547.84;10422012;28;20041;-66
2024/01/29 03:00:41;;;;;;;5.57;2.78;;;;;;;5.26;85.88;102540.97;10410539;28;20669;-66
2024/01/29 03:06:03;;;;;;;4.75;2.53;;;;;;;5.23;85.10;102546.06;10399864;28;20107;-66
2024/01/29 03:11:25;;;;;;;4.25;2.58;;;;;;;5.17;85.33;102513.44;10428700;28;20053;-66
2024/01/29 03:16:47;;;;;;;4.70;2.58;;;;;;;5.19;85.18;102521.16;10415792;28;20689;-66
2024/01/29 03:22:08;;;;;;;6.35;2.70;;;;;;;5.15;85.02;102522.81;10400889;28;20041;-66
2024/01/29 03:27:30;;;;;;;5.90;2.63;;;;;;;5.17;84.82;102525.41;10406871;28;20057;-66
2024/01/29 03:32:55;;;;;;;4.53;2.72;;;;;;;5.19;84.62;102514.34;10403684;28;20053;-66
2024/01/29 03:38:18;;;;;;;4.10;2.45;;;;;;;5.19;84.68;102508.34;10423097;28;20148;-66
2024/01/29 03:43:39;;;;;;;5.72;2.67;;;;;;;5.13;84.40;102498.84;10408651;28;20049;-66
2024/01/29 03:49:01;;;;;;;6.88;2.90;;;;;;;5.16;83.88;102493.78;10396726;28;20057;-66
2024/01/29 03:54:23;;;;;;;5.53;2.72;;;;;;;5.18;82.27;102506.63;10406127;28;20119;-66
2024/01/29 03:59:45;;;;;;;4.68;2.78;;;;;;;5.15;83.08;102506.59;10407835;28;20527;-66
2024/01/29 04:05:07;;;;;;;3.75;2.58;;;;;;;5.07;83.82;102501.31;10405069;28;20045;-66
2024/01/29 04:10:30;;;;;;;6.20;2.85;;;;;;;4.95;84.01;102514.75;10406278;28;20162;-66
2024/01/29 04:15:53;;;;;;;6.30;2.90;;;;;;;4.85;84.92;102523.06;10403148;28;20049;-66
2024/01/29 04:21:15;;;;;;;3.95;2.60;;;;;;;4.79;86.00;102522.97;10410003;28;20049;-66
2024/01/29 04:26:40;;;;;;;5.05;2.80;;;;;;;4.70;84.65;102516.78;10398947;28;20049;-66
2024/01/29 04:32:02;;;;;;;3.25;2.45;;;;;;;4.62;86.24;102514.03;10401538;28;20057;-66
2024/01/29 04:37:24;;;;;;;6.68;3.08;;;;;;;4.53;86.22;102508.72;10404402;28;20048;-66
2024/01/29 04:42:46;;;;;;;5.45;2.90;;;;;;;4.48;85.83;102499.19;10405795;28;20060;-66
2024/01/29 04:48:08;;;;;;;5.47;2.95;;;;;;;4.43;86.99;102506.78;10406126;28;20073;-66
2024/01/29 04:53:30;;;;;;;7.53;2.92;;;;;;;4.36;86.10;102499.78;10406653;28;20049;-66
2024/01/29 04:58:52;;;;;;;6.32;3.40;;;;;;;4.35;87.39;102510.88;10414115;28;20058;-65
2024/01/29 05:04:13;;;;;;;7.75;3.25;;;;;;;4.31;86.96;102506.50;10406471;28;20049;-66
2024/01/29 05:09:35;;;;;;;6.53;3.25;;;;;;;4.29;87.28;102492.81;10409509;28;20057;-66
2024/01/29 05:14:57;;;;;;;5.03;2.75;;;;;;;4.31;86.92;102506.50;10409023;28;20138;-67
2024/01/29 05:20:19;;;;;;;6.28;3.28;;;;;;;4.29;87.33;102499.63;10407625;28;20437;-66
2024/01/29 05:25:40;;;;;;;5.85;2.80;;;;;;;4.29;88.02;102503.06;10412888;28;20543;-66
2024/01/29 05:31:03;;;;;;;8.00;3.10;;;;;;;4.28;87.32;102505.59;10408804;28;20049;-67
2024/01/29 05:36:24;;;;;;;5.53;2.80;;;;;;;4.30;87.52;102499.69;10413313;28;20069;-67
2024/01/29 05:41:46;;;;;;;6.07;2.45;;;;;;;4.30;86.75;102491.13;10414500;28;20045;-66
2024/01/29 05:47:08;;;;;;;3.88;2.80;;;;;;;4.30;87.13;102497.13;10407710;28;20049;-66
2024/01/29 05:52:30;;;;;;;6.25;2.72;;;;;;;4.31;87.34;102486.03;10415445;28;20048;-66
2024/01/29 05:57:51;;;;;;;4.20;2.53;;;;;;;4.29;87.18;102487.69;10422975;28;20394;-67
2024/01/29 06:03:14;;;;;;;4.25;2.80;;;;;;;4.28;86.03;102496.22;10418835;28;20062;-65
2024/01/29 06:08:35;;;;;;;6.70;2.78;;;;;;;4.29;86.95;102485.13;10410870;28;20422;-66
2024/01/29 06:13:58;;;;;;;5.20;2.90;;;;;;;4.26;86.46;102477.38;10421727;28;20063;-66
2024/01/29 06:19:37;;;;;;;4.93;2.45;;;;;;;4.29;84.74;102482.56;10409925;28;20048;-66
2024/01/29 06:25:19;;;;;;;4.32;2.40;;;;;;;4.31;85.33;102490.28;10410938;28;20111;-66
2024/01/29 06:30:42;;;;;;;4.15;2.70;;;;;;;4.35;86.58;102487.81;10415632;28;20057;-66
2024/01/29 06:36:07;;;;;;;7.85;3.22;;;;;;;4.39;86.98;102499.88;10408618;28;20576;-66
2024/01/29 06:41:29;;;;;;;7.05;3.08;;;;;;;4.34;87.23;102498.03;10409601;28;20049;-66
2024/01/29 06:46:51;;;;;;;5.10;3.17;;;;;;;4.33;86.09;102509.97;10409521;28;20045;-66
2024/01/29 06:52:12;;;;;;;6.13;2.90;;;;;;;4.32;87.54;102499.72;10413299;28;20060;-66
2024/01/29 06:57:39;;;;;;;7.10;2.92;;;;;;;4.35;86.95;102482.69;10409848;28;20064;-66
2024/01/29 07:03:01;;;;;;;7.60;2.97;;;;;;;4.36;86.42;102484.41;10402141;28;20057;-66
2024/01/29 07:08:23;;;;;;;4.65;2.78;;;;;;;4.41;85.74;102503.34;10410316;28;20067;-66
2024/01/29 07:13:45;;;;;;;3.72;2.80;;;;;;;4.49;85.19;102500.91;10420803;28;20054;-66
2024/01/29 07:19:06;;;;;;;6.13;3.25;;;;;;;4.47;86.13;102507.75;10412390;28;20057;-66
2024/01/29 07:24:28;;;;;;;12.75;3.13;;;;;;;4.44;85.88;102513.66;10412901;28;20099;-65
2024/01/29 07:29:50;;;;;;;4.25;2.70;;;;;;;4.43;86.23;102526.44;10410878;28;20060;-65
2024/01/29 07:35:12;;;;;;;8.70;3.38;;;;;;;4.40;86.95;102529.78;10404973;28;20041;-66
2024/01/29 07:40:34;;;;;;;6.60;3.30;;;;;;;4.38;88.32;102520.31;10408180;28;20064;-66
2024/01/29 07:45:56;;;;;;;6.07;3.40;;;;;;;4.38;88.70;102526.31;10397579;28;20827;-65
2024/01/29 07:51:18;;;;;;;8.38;3.80;;;;;;;4.41;87.64;102518.72;10417386;28;20044;-66
2024/01/29 07:56:41;;;;;;;10.27;3.40;;;;;;;4.45;88.43;102530.75;10413026;28;20048;-65
2024/01/29 08:02:03;;;;;;;6.10;4.13;;;;;;;4.49;88.81;102529.97;10415428;28;20132;-66
2024/01/29 08:07:26;;;;;;;7.45;3.72;;;;;;;4.50;88.89;102524.03;10407318;28;20131;-66
2024/01/29 08:12:48;;;;;;;5.03;3.50;;;;;;;4.57;87.77;102536.16;10408405;28;20489;-66
2024/01/29 08:18:10;;;;;;;5.28;3.45;;;;;;;4.65;87.85;102536.31;10419914;28;20102;-65
2024/01/29 08:23:32;;;;;;;6.63;3.42;;;;;;;4.81;84.13;102543.50;10419395;28;20126;-65
2024/01/29 08:28:54;;;;;;;6.72;3.30;;;;;;;4.92;84.76;102553.16;10404722;28;20057;-65
2024/01/29 08:34:16;;;;;;;5.75;3.67;;;;;;;5.07;83.24;102565.44;10384802;28;20057;-65
2024/01/29 08:39:38;;;;;;;7.82;3.30;;;;;;;5.17;83.03;102556.19;10403261;28;20137;-65
2024/01/29 08:45:00;;;;;;;6.20;3.75;;;;;;;5.36;81.73;102550.59;10407637;28;20136;-65
2024/01/29 08:50:22;;;;;;;6.53;3.50;;;;;;;5.52;81.35;102550.91;10408972;28;20045;-65
2024/01/29 08:55:43;;;;;;;6.07;3.50;;;;;;;5.60;81.26;102543.34;10408043;28;20045;-65
2024/01/29 09:01:05;;;;;;;4.95;3.60;;;;;;;5.71;82.18;102562.38;10410689;28;20044;-66
2024/01/29 09:06:27;;;;;;;7.28;3.47;;;;;;;5.75;80.93;102569.31;10412817;28;20050;-66
2024/01/29 09:11:51;;;;;;;5.50;3.63;;;;;;;5.93;80.92;102572.22;10415457;28;20103;-66
2024/01/29 09:17:12;;;;;;;10.75;3.63;;;;;;;6.10;80.77;102573.34;10397860;28;20122;-65
2024/01/29 09:22:34;;;;;;;7.20;3.72;;;;;;;6.17;81.08;102572.63;10416608;28;20060;-65
2024/01/29 09:27:56;;;;;;;6.65;3.40;;;;;;;6.26;80.51;102580.50;10414144;28;20055;-65
2024/01/29 09:33:19;;;;;;;7.72;3.65;;;;;;;6.33;80.04;102582.31;10400838;28;20051;-66
2024/01/29 09:38:43;;;;;;;6.80;3.67;;;;;;;6.48;79.99;102586.81;10424526;28;20125;-65
2024/01/29 09:44:07;;;;;;;5.93;3.88;;;;;;;6.76;79.60;102578.63;10419067;28;20061;-66
2024/01/29 09:49:28;;;;;;;5.03;3.28;;;;;;;6.86;80.55;102581.38;10404893;28;20152;-66
2024/01/29 09:54:51;;;;;;;7.10;3.60;;;;;;;7.16;79.74;102580.88;10420012;28;20557;-67
2024/01/29 10:00:16;;;;;;;7.55;3.47;;;;;;;7.39;79.41;102588.88;10410327;28;20080;-67
2024/01/29 10:05:38;;;;;;;7.53;3.70;;;;;;;7.63;78.50;102581.41;10396284;28;20045;-67
2024/01/29 10:11:00;;;;;;;6.13;3.90;;;;;;;7.69;79.03;102590.06;10417775;28;20092;-67
2024/01/29 10:16:22;;;;;;;7.18;3.83;;;;;;;7.96;76.93;102610.09;10418572;28;20057;-67
2024/01/29 10:21:45;;;;;;;6.63;3.60;;;;;;;8.15;76.87;102601.66;10412056;28;21332;-67
2024/01/29 10:27:08;;;;;;;8.98;3.75;;;;;;;8.28;76.26;102613.84;10414253;28;20546;-67
2024/01/29 10:32:31;;;;;;;8.43;4.18;;;;;;;8.31;75.83;102601.00;10414720;28;20065;-67
2024/01/29 10:38:00;;;;;;;7.25;3.85;;;;;;;8.40;76.31;102607.94;10416715;28;20105;-67
2024/01/29 10:43:39;;;;;;;6.55;3.90;;;;;;;8.47;75.99;102600.25;10420773;28;20512;-67
2024/01/29 10:49:01;;;;;;;7.18;4.07;;;;;;;8.46;77.05;102602.81;10418072;28;20541;-67
2024/01/29 10:54:24;;;;;;;7.95;4.43;;;;;;;8.53;77.68;102605.47;10414386;28;20144;-67
2024/01/29 10:59:47;;;;;;;5.88;4.20;;;;;;;8.59;77.72;102600.31;10394307;28;20072;-67
2024/01/29 11:05:12;;;;;;;8.98;4.43;;;;;;;8.65;76.27;102605.53;10402490;28;20254;-67
2024/01/29 11:10:34;;;;;;;7.97;4.60;;;;;;;8.65;78.48;102590.03;10413504;28;20157;-66
2024/01/29 11:15:56;;;;;;;6.15;4.20;;;;;;;8.81;76.14;102597.03;10400462;28;20079;-67
2024/01/29 11:21:23;;;;;;;7.75;4.63;;;;;;;8.96;77.36;102596.25;10405381;28;20053;-67
2024/01/29 11:26:45;;;;;;;8.52;4.85;;;;;;;9.06;76.92;102604.03;10415758;28;20055;-66
2024/01/29 11:32:12;;;;;;;6.15;4.50;;;;;;;9.08;77.65;102597.16;10406601;28;20064;-67
2024/01/29 11:37:34;;;;;;;7.38;4.60;;;;;;;9.07;76.70;102594.56;10409026;28;20584;-67
2024/01/29 11:42:56;;;;;;;11.85;5.30;;;;;;;9.02;78.51;102591.97;10413482;28;20183;-66
2024/01/29 11:48:21;;;;;;;8.55;5.72;;;;;;;9.01;79.62;102587.66;10400028;28;20052;-67
2024/01/29 11:53:43;;;;;;;9.23;5.10;;;;;;;9.37;76.46;102604.16;10420611;28;20056;-67
2024/01/29 11:59:06;;;;;;;7.57;5.30;;;;;;;9.34;78.48;102593.84;10410322;28;20174;-67
2024/01/29 12:04:28;;;;;;;10.35;5.10;;;;;;;9.37;79.35;102599.00;10398567;28;20489;-66
2024/01/29 12:09:50;;;;;;;9.02;5.15;;;;;;;9.57;78.05;102608.53;10404329;28;20055;-66
2024/01/29 12:15:12;;;;;;;8.88;6.07;;;;;;;9.62;78.85;102605.97;10407032;28;20048;-67
2024/01/29 12:20:34;;;;;;;9.52;5.72;;;;;;;9.66;78.12;102597.34;10408112;28;20081;-67
2024/01/29 12:25:56;;;;;;;12.95;5.57;;;;;;;9.71;79.53;102587.88;10408827;28;20128;-66
2024/01/29 12:31:21;;;;;;;8.38;6.05;;;;;;;9.72;80.32;102592.22;10407291;28;20057;-67
2024/01/29 12:36:43;;;;;;;10.35;5.90;;;;;;;9.90;79.63;102592.25;10400143;28;20665;-67
2024/01/29 12:42:14;;;;;;;9.98;6.07;;;;;;;9.89;79.57;102606.88;10429343;28;20075;-67
2024/01/29 12:47:35;;;;;;;8.95;5.97;;;;;;;10.04;79.37;102611.19;10416567;28;20041;-66
2024/01/29 12:53:00;;;;;;;9.93;6.47;;;;;;;10.06;80.00;102604.31;10395816;28;20393;-67
2024/01/29 12:58:23;;;;;;;8.93;5.80;;;;;;;10.20;79.37;102612.97;10407020;28;20092;-66
2024/01/29 13:03:45;;;;;;;11.40;5.95;;;;;;;10.28;78.14;102613.84;10409485;28;20061;-66
2024/01/29 13:09:07;;;;;;;9.20;5.80;;;;;;;10.30;79.44;102614.69;10417433;28;20128;-67
2024/01/29 13:14:29;;;;;;;10.23;6.65;;;;;;;10.39;78.99;102624.19;10415248;28;20433;-68
2024/01/29 13:19:51;;;;;;;10.88;6.50;;;;;;;10.46;79.36;102629.34;10404638;28;20049;-67
2024/01/29 13:25:14;;;;;;;11.90;6.15;;;;;;;10.47;78.90;102628.50;10408474;28;20052;-66
2024/01/29 13:30:37;;;;;;;9.32;6.55;;;;;;;10.46;78.91;102637.13;10407804;28;20446;-67
2024/01/29 13:36:00;;;;;;;9.70;6.25;;;;;;;10.48;79.05;102640.56;10406759;28;20045;-67
2024/01/29 13:41:21;;;;;;;12.52;6.90;;;;;;;10.51;79.81;102629.38;10401815;28;20053;-67
2024/01/29 13:46:43;;;;;;;8.35;6.20;;;;;;;10.58;78.33;102631.97;10401996;28;20469;-67
2024/01/29 13:52:05;;;;;;;11.85;6.60;;;;;;;10.68;79.19;102638.81;10407199;28;20144;-68
2024/01/29 13:57:27;;;;;;;11.25;6.68;;;;;;;10.63;80.29;102655.22;10406940;28;20053;-67
2024/01/29 14:02:50;;;;;;;13.13;6.53;;;;;;;10.65;79.72;102638.84;10398222;28;20060;-68
2024/01/29 14:08:12;;;;;;;12.93;6.43;;;;;;;10.59;80.63;102653.50;10401628;28;20044;-67
2024/01/29 14:13:36;;;;;;;8.57;6.15;;;;;;;10.57;81.11;102656.09;10420625;28;20049;-65
2024/01/29 14:18:58;;;;;;;9.90;6.22;;;;;;;10.46;81.17;102650.06;10420658;28;20087;-66
2024/01/29 14:24:19;;;;;;;9.68;6.55;;;;;;;10.47;82.29;102659.56;10411302;28;20053;-65
2024/01/29 14:29:41;;;;;;;11.45;6.95;;;;;;;10.44;82.06;102643.19;10399119;28;20067;-66
2024/01/29 14:35:03;;;;;;;14.10;6.72;;;;;;;10.49;82.39;102655.25;10405927;28;20071;-65
2024/01/29 14:40:26;;;;;;;12.18;7.20;;;;;;;10.47;83.03;102638.88;10420118;28;20084;-65
2024/01/29 14:45:48;;;;;;;11.43;6.85;;;;;;;10.46;82.77;102634.53;10404539;28;20407;-65
2024/01/29 14:51:10;;;;;;;14.43;7.10;;;;;;;10.47;83.31;102638.88;10391830;28;20532;-65
2024/01/29 14:56:32;;;;;;;12.15;6.72;;;;;;;10.41;83.78;102638.84;10416375;28;20502;-64
2024/01/29 15:01:54;;;;;;;15.05;7.38;;;;;;;10.35;84.26;102644.03;10409681;28;20053;-64
2024/01/29 15:07:15;;;;;;;14.18;7.50;;;;;;;10.28;84.57;102637.13;10405966;28;20053;-65
2024/01/29 15:12:43;;;;;;;12.18;7.53;;;;;;;10.27;84.56;102645.75;10394207;28;20262;-64
2024/01/29 15:18:05;;;;;;;11.70;7.03;;;;;;;10.29;84.77;102648.34;10398859;28;20207;-65
2024/01/29 15:23:27;;;;;;;17.98;6.80;;;;;;;10.24;85.13;102658.69;10400281;28;20119;-65
2024/01/29 15:28:49;;;;;;;9.85;6.82;;;;;;;10.18;84.91;102653.53;10403010;28;20049;-65
2024/01/29 15:34:11;;;;;;;12.98;7.15;;;;;;;10.16;85.41;102662.13;10401833;28;20586;-64
2024/01/29 15:39:33;;;;;;;13.23;7.28;;;;;;;10.09;86.20;102663.81;10407204;28;20049;-65
2024/01/29 15:44:55;;;;;;;12.52;7.78;;;;;;;9.99;87.05;102659.47;10422507;28;20121;-64
2024/01/29 15:50:17;;;;;;;13.15;8.25;;;;;;;9.95;87.84;102657.75;10404862;28;20119;-65
2024/01/29 15:55:39;;;;;;;12.55;8.30;;;;;;;9.98;87.71;102673.28;10409266;28;20206;-65
2024/01/29 16:01:01;;;;;;;11.65;8.18;;;;;;;9.95;88.62;102675.84;10399387;28;20421;-65
2024/01/29 16:06:23;;;;;;;14.18;8.45;;;;;;;9.95;88.48;102662.91;10402646;28;20045;-66
2024/01/29 16:11:44;;;;;;;12.85;8.23;;;;;;;9.94;88.48;102674.13;10403418;28;20061;-65
2024/01/29 16:17:08;;;;;;;20.40;8.85;;;;;;;9.95;88.47;102681.00;10403091;28;20141;-65
2024/01/29 16:22:30;;;;;;;14.82;9.45;;;;;;;9.91;88.63;102679.28;10393975;28;20053;-65
2024/01/29 16:27:52;;;;;;;14.75;9.48;;;;;;;9.94;88.56;102682.72;10399392;28;20046;-65
2024/01/29 16:33:14;;;;;;;13.30;9.07;;;;;;;9.97;88.78;102702.56;10402353;28;20132;-65
2024/01/29 16:38:36;;;;;;;16.42;8.98;;;;;;;10.01;88.20;102699.13;10400595;28;20052;-65
2024/01/29 16:43:58;;;;;;;13.82;8.88;;;;;;;10.05;88.06;102716.41;10410761;28;20052;-65
2024/01/29 16:49:19;;;;;;;15.90;9.13;;;;;;;10.02;88.60;102706.03;10409960;28;20144;-64
2024/01/29 16:54:42;;;;;;;17.02;9.48;;;;;;;10.02;89.34;102721.53;10404227;28;20053;-65
2024/01/29 17:00:03;;;;;;;16.13;9.00;;;;;;;10.01;89.34;102725.88;10400276;28;20485;-65
2024/01/29 17:05:25;;;;;;;15.45;9.75;;;;;;;10.01;90.11;102706.91;10401185;28;20127;-66
2024/01/29 17:10:47;;;;;;;16.60;9.38;;;;;;;9.98;90.32;102707.75;10411702;28;20053;-66
2024/01/29 17:16:10;;;;;;;14.80;9.52;;;;;;;9.99;90.06;102714.66;10408260;28;20253;-66
2024/01/29 17:21:32;;;;;;;16.92;9.65;;;;;;;10.01;89.75;102706.91;10402575;28;20046;-67
2024/01/29 17:26:54;;;;;;;14.57;9.65;;;;;;;10.02;90.03;102700.84;10407754;28;20432;-66
2024/01/29 17:32:15;;;;;;;14.40;10.15;;;;;;;10.02;89.52;102721.53;10400221;28;20060;-66
2024/01/29 17:37:37;;;;;;;12.95;9.38;;;;;;;10.03;89.67;102718.13;10413907;28;20050;-66
2024/01/29 17:42:59;;;;;;;17.17;10.43;;;;;;;10.01;89.55;102706.91;10408320;28;20037;-66
2024/01/29 17:48:22;;;;;;;13.63;8.90;;;;;;;10.03;90.37;102728.47;10412459;28;20179;-66
2024/01/29 17:53:46;;;;;;;16.08;9.70;;;;;;;10.05;89.92;102732.75;10407950;28;20077;-66
2024/01/29 17:59:08;;;;;;;16.33;10.18;;;;;;;10.04;89.61;102725.00;10412055;28;20108;-65
2024/01/29 18:04:30;;;;;;;14.07;9.90;;;;;;;10.04;89.81;102719.81;10414586;28;20537;-66
2024/01/29 18:09:51;;;;;;;13.98;9.15;;;;;;;10.03;89.66;102731.03;10408387;28;20159;-66
2024/01/29 18:15:13;;;;;;;12.73;9.30;;;;;;;10.03;89.81;102736.22;10397716;28;20135;-66
2024/01/29 18:20:35;;;;;;;17.70;9.40;;;;;;;9.98;89.95;102725.84;10405365;28;20405;-67
2024/01/29 18:25:56;;;;;;;14.20;9.48;;;;;;;9.94;89.69;102720.69;10414146;28;20088;-67
2024/01/29 18:31:18;;;;;;;16.25;10.27;;;;;;;9.97;89.14;102718.09;10412416;28;20056;-66
2024/01/29 18:36:40;;;;;;;14.82;9.30;;;;;;;9.96;89.55;102724.13;10403252;28;20113;-67
2024/01/29 18:42:03;;;;;;;15.75;9.75;;;;;;;9.97;90.19;102733.59;10412691;28;20077;-67
2024/01/29 18:47:25;;;;;;;15.23;10.05;;;;;;;9.96;89.50;102734.47;10415213;28;20046;-67
2024/01/29 18:52:47;;;;;;;16.27;9.68;;;;;;;10.01;89.67;102743.09;10410854;28;20402;-66
2024/01/29 18:58:08;;;;;;;19.00;10.15;;;;;;;10.00;89.43;102738.78;10405668;28;20093;-67
2024/01/29 19:03:30;;;;;;;15.80;9.80;;;;;;;10.00;89.50;102744.81;10400677;28;20057;-67
2024/01/29 19:08:52;;;;;;;15.10;10.18;;;;;;;9.95;90.15;102743.06;10398954;28;20095;-67
2024/01/29 19:14:14;;;;;;;15.10;9.88;;;;;;;9.96;90.10;102740.50;10402271;28;20537;-67
2024/01/29 19:19:37;;;;;;;16.52;10.50;;;;;;;9.96;90.34;102742.22;10407378;28;20250;-67
2024/01/29 19:25:00;;;;;;;17.83;10.68;;;;;;;9.94;90.53;102738.78;10408781;28;20050;-67
2024/01/29 19:30:22;;;;;;;16.98;9.93;;;;;;;9.91;90.49;102731.00;10404656;28;20065;-67
2024/01/29 19:35:44;;;;;;;20.73;10.70;;;;;;;9.92;90.91;102731.03;10409737;28;20069;-66
2024/01/29 19:41:06;;;;;;;20.60;11.68;;;;;;;9.88;91.01;102724.09;10408958;28;20125;-66
2024/01/29 19:46:28;;;;;;;15.98;10.90;;;;;;;9.91;91.13;102733.56;10412379;28;20044;-67
2024/01/29 19:51:52;;;;;;;16.45;10.95;;;;;;;9.87;91.37;102726.69;10410194;28;20065;-66
2024/01/29 19:57:16;;;;;;;16.52;11.25;;;;;;;9.83;91.95;102724.94;10418583;28;20187;-66
2024/01/29 20:02:39;;;;;;;17.95;11.45;;;;;;;9.85;91.45;102733.56;10397585;28;20052;-66
2024/01/29 20:08:00;;;;;;;17.60;11.48;;;;;;;9.86;92.02;102724.94;10411308;28;20155;-66
2024/01/29 20:13:22;;;;;;;18.27;11.65;;;;;;;9.83;91.96;102719.78;10408458;28;20060;-66
2024/01/29 20:18:44;;;;;;;15.82;11.25;;;;;;;9.83;91.49;102714.59;10407929;28;20047;-66
2024/01/29 20:24:06;;;;;;;15.55;10.50;;;;;;;9.86;91.44;102719.78;10409349;28;20056;-66
2024/01/29 20:29:27;;;;;;;14.98;9.98;;;;;;;9.88;91.11;102718.94;10410769;28;20862;-66
2024/01/29 20:34:50;;;;;;;15.88;10.73;;;;;;;9.91;91.01;102718.94;10409715;28;20059;-65
2024/01/29 20:40:12;;;;;;;18.20;10.48;;;;;;;9.85;90.74;102705.13;10402607;28;20053;-66
2024/01/29 20:45:34;;;;;;;15.27;10.30;;;;;;;9.87;91.39;102700.84;10408680;28;20065;-66
2024/01/29 20:50:56;;;;;;;13.70;10.30;;;;;;;9.88;91.69;102705.13;10402675;28;21820;-66
2024/01/29 20:56:17;;;;;;;15.48;10.75;;;;;;;9.84;91.02;102704.25;10402520;28;20045;-66
2024/01/29 21:01:43;;;;;;;15.32;9.93;;;;;;;9.75;91.91;102705.94;10414391;28;20061;-65
2024/01/29 21:07:08;;;;;;;17.33;10.68;;;;;;;9.65;92.39;102694.69;10416762;28;20048;-66
2024/01/29 21:12:30;;;;;;;15.02;11.25;;;;;;;9.57;92.67;102690.38;10418145;28;20658;-66
2024/01/29 21:17:51;;;;;;;14.90;11.30;;;;;;;9.52;91.82;102692.09;10425122;28;20072;-65
2024/01/29 21:23:15;;;;;;;20.42;11.40;;;;;;;9.47;92.21;102698.97;10419867;28;20091;-65
2024/01/29 21:28:37;;;;;;;15.50;10.73;;;;;;;9.37;92.90;102692.00;10412928;28;20146;-66
2024/01/29 21:33:59;;;;;;;17.08;11.35;;;;;;;9.33;94.24;102690.25;10418057;28;20056;-66
2024/01/29 21:39:21;;;;;;;17.85;11.93;;;;;;;9.24;94.42;102685.03;10418521;28;20049;-66
2024/01/29 21:44:46;;;;;;;17.83;11.30;;;;;;;9.25;93.77;102686.78;10419270;28;20052;-66
2024/01/29 21:50:08;;;;;;;16.58;11.07;;;;;;;9.20;94.12;102693.63;10416092;28;20053;-66
2024/01/29 21:55:30;;;;;;;18.95;11.52;;;;;;;9.11;94.00;102687.56;10442602;28;20107;-66
2024/01/29 22:00:52;;;;;;;18.00;11.38;;;;;;;9.06;94.57;102691.81;10417335;28;20053;-66
2024/01/29 22:06:22;;;;;;;18.10;11.82;;;;;;;8.97;94.68;102691.75;10416923;28;20052;-66
2024/01/29 22:11:44;;;;;;;23.65;12.85;;;;;;;8.90;94.47;102689.16;10406123;28;20871;-66
2024/01/29 22:17:08;;;;;;;17.77;12.45;;;;;;;8.86;94.71;102688.25;10421641;28;20053;-66
2024/01/29 22:22:30;;;;;;;20.60;12.35;;;;;;;8.79;94.98;102681.31;10426751;28;20049;-66
2024/01/29 22:27:52;;;;;;;17.50;11.77;;;;;;;8.72;95.04;102689.88;10411641;28;20059;-66
2024/01/29 22:33:13;;;;;;;20.33;12.15;;;;;;;8.64;95.12;102686.38;10410631;28;20057;-65
2024/01/29 22:38:37;;;;;;;20.55;12.38;;;;;;;8.57;94.20;102694.91;10418337;28;20563;-65
2024/01/29 22:43:59;;;;;;;20.05;11.10;;;;;;;8.52;95.34;102704.31;10413072;28;20049;-65
2024/01/29 22:49:20;;;;;;;17.02;11.80;;;;;;;8.44;95.07;102702.53;10416599;28;20477;-66
2024/01/29 22:54:42;;;;;;;20.73;12.38;;;;;;;8.39;94.80;102705.06;10405969;28;20507;-66
2024/01/29 23:00:14;;;;;;;19.05;12.93;;;;;;;8.35;95.09;102707.63;10407830;28;20132;-66
2024/01/29 23:05:36;;;;;;;18.40;12.25;;;;;;;8.27;95.18;102710.13;10408412;28;20060;-66
2024/01/29 23:10:58;;;;;;;20.05;13.30;;;;;;;8.21;95.37;102704.88;10411809;28;20123;-66
2024/01/29 23:16:19;;;;;;;25.92;12.90;;;;;;;8.19;95.21;102716.88;10406715;28;20054;-66
2024/01/29 23:21:41;;;;;;;18.42;12.27;;;;;;;8.16;95.37;102711.69;10406085;28;20084;-66
2024/01/29 23:27:03;;;;;;;19.20;12.27;;;;;;;8.05;95.12;102718.44;10405897;28;20049;-66
2024/01/29 23:32:25;;;;;;;21.48;12.52;;;;;;;8.02;95.56;102714.13;10409417;28;20049;-66
2024/01/29 23:37:47;;;;;;;17.98;12.23;;;;;;;8.00;96.04;102727.84;10411245;28;20068;-66
2024/01/29 23:43:08;;;;;;;25.63;12.85;;;;;;;7.99;96.23;102723.53;10407208;28;20064;-66
2024/01/29 23:48:30;;;;;;;21.77;12.73;;;;;;;7.93;95.91;102719.16;10403995;28;20468;-66
2024/01/29 23:53:52;;;;;;;20.00;12.13;;;;;;;7.88;96.49;102722.53;10398469;28;20061;-66
2024/01/29 23:59:13;;;;;;;19.02;12.82;;;;;;;7.83;96.47;102726.78;10404172;28;20048;-66
